• Join FlightAware (Why Join?)
  • Login
  • US Flag 
04:13PM EST


 

Airport Tracker/Info


-or-


 

Live Flight TrackerFlight Track Log ✈ SKW4848 ✈ 02-Nov-2013 ✈ KSJC - KLAX

Flight Track Log - Related Links

Times and Time Zones

All times are in EDT time to prevent confusion due to time zone crossing. See the SKW4848 flight status page for this flight to view local times or setup timezone preferences in your user account.

Time Position Orientation Groundspeed Altitude Reporting Facility
EDT Latitude Longitude Course Direction KTS MPH feet Rate Location/Type
02:08PM 37.3833 -121.9500 127° Southeast 161 185 1,600  Level Northern Cal TRACON
02:09PM 37.4333 -121.9833 332° Northwest 217 250 3,900 1,650 Climbing Northern Cal TRACON
02:10PM 37.1042 -121.6482 138° Southeast  Level Estimated
02:10PM 37.4333 -121.9167 90° East 230 265 4,900  Level Northern Cal TRACON
02:11PM 37.0179 -121.5550 141° Southeast  Level Estimated
02:11PM 37.3528 -121.8322 140° Southeast 229 264 8,900  Level Oakland Center
02:12PM 36.9315 -121.4620 141° Southeast  Level Estimated
02:12PM 37.2978 -121.7694 138° Southeast 290 334 10,700  Level Oakland Center
02:13PM 36.8630 -121.3481 127° Southeast  Level FlightAware Approximate
02:13PM 37.2286 -121.6956 140° Southeast 321 369 13,000  Level Oakland Center
02:14PM 37.1458 -121.5992 137° Southeast 336 387 16,300 2,585 Climbing Oakland Center
02:15PM 37.0806 -121.5311 140° Southeast 341 392 18,300 2,066 Climbing Oakland Center
02:16PM 37.0075 -121.4481 138° Southeast 354 407 20,500 2,098 Climbing Oakland Center
02:17PM 36.9294 -121.3628 139° Southeast 369 425 22,600 2,098 Climbing Oakland Center
02:18PM 36.8347 -121.2608 139° Southeast 375 432 24,800 1,951 Climbing Oakland Center
02:19PM 36.7514 -121.1708 139° Southeast 389 448 26,600 1,707 Climbing Oakland Center
02:20PM 36.6686 -121.0814 139° Southeast 395 455 28,300 1,561 Climbing Oakland Center
02:21PM 36.5858 -120.9872 138° Southeast 402 463 29,800 1,366 Climbing Oakland Center
02:22PM 36.5017 -120.8961 139° Southeast 402 463 31,100 1,230 Climbing Oakland Center
02:23PM 36.4167 -120.8031 139° Southeast 408 470 32,300 927 Climbing Oakland Center
02:24PM 36.3283 -120.7078 139° Southeast 419 482 33,000 341 Climbing Oakland Center
02:25PM 36.2819 -120.5728 113° Southeast 429 494 33,000  Level Oakland Center
02:27PM 36.2517 -120.4306 105° East 427 491 33,000  Level Oakland Center
02:28PM 36.2111 -120.2939 110° East 428 493 33,000  Level Oakland Center
02:29PM 36.0936 -120.2081 149° Southeast 420 483 33,000  Level Oakland Center
02:30PM 35.9808 -120.1769 167° South 424 488 33,000  Level Oakland Center
02:31PM 35.8744 -120.1117 154° Southeast 426 490 33,000  Level Oakland Center
02:32PM 35.7661 -120.0486 155° Southeast 427 491 33,000  Level Oakland Center
02:33PM 35.6528 -120.0064 163° South 433 498 33,000  Level Oakland Center
02:34PM 35.5311 -119.9917 174° South 434 499 33,000 -146 Level Los Angeles Center
02:35PM 35.4103 -119.9758 174° South 431 496 32,700 -726 Descending Los Angeles Center
02:36PM 35.2892 -119.9528 171° South 442 509 31,500 -1,161 Descending Los Angeles Center
02:37PM 35.1947 -119.8536 139° Southeast 449 517 30,300 -1,065 Descending Los Angeles Center
02:38PM 35.1083 -119.7514 136° Southeast 435 501 29,300 -1,452 Descending Los Angeles Center
02:39PM 35.0078 -119.6289 135° Southeast 427 491 27,300 -1,790 Descending Los Angeles Center
02:40PM 34.9275 -119.5336 136° Southeast 408 470 25,600 -1,645 Descending Los Angeles Center
02:41PM 34.8511 -119.4383 134° Southeast 395 455 23,900 -1,645 Descending Los Angeles Center
02:42PM 34.7753 -119.3486 136° Southeast 384 442 22,200 -1,452 Descending Los Angeles Center
02:43PM 34.7133 -119.2800 138° Southeast 379 436 20,900 -1,680 Descending Los Angeles Center
02:44PM 34.6128 -119.1675 137° Southeast 367 422 18,700 -1,824 Descending Los Angeles Center
02:45PM 34.5400 -119.0847 137° Southeast 362 417 17,100 -1,500 Descending Los Angeles Center
02:46PM 34.4703 -119.0064 137° Southeast 343 395 15,600 -1,220 Descending Los Angeles Center
02:47PM 34.4144 -118.9450 138° Southeast 340 391 14,600 -1,403 Descending Los Angeles Center
02:48PM 34.3014 -118.8617 149° Southeast 341 392 12,700 -1,248 Descending Los Angeles Center
02:49PM 34.2169 -118.7997 149° Southeast 353 406 12,000 -677 Descending Los Angeles Center
02:50PM 34.1328 -118.7419 150° Southeast 349 402 11,300 -774 Descending Los Angeles Center
02:51PM 34.0544 -118.6631 140° Southeast 346 398 10,400 -960 Descending Los Angeles Center
02:52PM 34.0303 -118.5550 105° East 306 352 9,300 -1,440 Descending Los Angeles Center
02:53PM 34.0131 -118.4619 103° East 287 330 7,400 -1,597 Descending Los Angeles Center
02:54PM 34.0208 -118.3819 83° East 289 333 6,000 -1,161 Descending Los Angeles Center
02:55PM 34.0300 -118.2736 84° East 273 314 5,000 -1,103 Descending Los Angeles Center
02:57PM 33.9686 -118.2531 164° South 210 242 3,500 -1,412 Descending Los Angeles Center
02:58PM 33.9461 -118.3014 241° Southwest 185 213 1,800 -1,333 Descending Los Angeles Center
02:59PM 33.9408 -118.3472 262° West 160 184 700 -714 Descending Los Angeles Center
03:00PM 33.9372 -118.3972 265° West 148 170 300 -387 Descending Los Angeles Center